Jubbega, Netherlands
Current Conditions -  °F | °C
As of 3:25 PM on Monday 26 Jan 2015 (Local Time) from EHLW Reporting Station
Overcast Overcast  
Wind Chill: 37°   Ceiling: 5800
Heat Index: 45°   Visibility: 6mi
Dew Point: 41°   Wind: 16mph
Humidity: 87%   Direction: 300°WNW
Pressure: 29.97"   Gusts: NA
Location:  53°N, 6.12°E
Report Text: EHLW 261425Z AUTO 30014KT 9999 FEW032 OVC058 07/05 Q1015 BLU 31013KT 9999 BKN026
Loading
Personal Weather Stations






























Interactive Weather Map New forecast layout! Learn more

10-Day Weather Forecast

Advertisements
Track Severe Weather on mobile